createdAt,value
2023-02-15T00:00:27.066Z,16.67
2023-02-15T00:02:55.542Z,16.30
2023-02-15T00:05:24.001Z,18.00
2023-02-15T00:07:52.436Z,18.30
2023-02-15T00:10:20.997Z,16.13
2023-02-15T00:12:49.428Z,18.40
2023-02-15T00:15:19.216Z,17.33
2023-02-15T00:17:47.709Z,16.57
2023-02-15T00:20:16.251Z,18.17
2023-02-15T00:22:44.709Z,17.57
2023-02-15T00:25:13.202Z,16.30
2023-02-15T00:27:41.616Z,16.00
2023-02-15T00:30:10.944Z,14.80
2023-02-15T00:32:40.787Z,15.57
2023-02-15T00:35:10.196Z,16.58
2023-02-15T00:37:38.673Z,16.33
2023-02-15T00:40:08.617Z,16.60
2023-02-15T00:42:37.097Z,17.53
2023-02-15T00:45:06.074Z,16.43
2023-02-15T00:47:34.648Z,16.37
2023-02-15T00:50:05.114Z,16.97
2023-02-15T00:52:33.561Z,16.27
2023-02-15T00:55:02.042Z,15.63
2023-02-15T00:57:30.661Z,14.67
2023-02-15T00:59:59.130Z,15.03
2023-02-15T01:02:27.699Z,14.60
2023-02-15T01:04:56.247Z,14.33
2023-02-15T01:07:26.272Z,14.40
2023-02-15T01:09:54.718Z,15.87
2023-02-15T01:12:23.292Z,16.07
2023-02-15T01:14:51.727Z,14.97
2023-02-15T01:17:21.649Z,16.17
2023-02-15T01:19:50.134Z,16.10
2023-02-15T01:22:18.563Z,15.67
2023-02-15T01:24:51.467Z,15.63
2023-02-15T01:27:20.120Z,17.90
2023-02-15T01:29:49.319Z,16.30
2023-02-15T01:32:17.924Z,15.53
2023-02-15T01:34:46.438Z,16.47
2023-02-15T01:37:15.468Z,18.07
2023-02-15T01:39:44.234Z,18.30
2023-02-15T01:42:14.938Z,16.67
2023-02-15T01:44:50.212Z,17.87
2023-02-15T01:47:23.757Z,18.17
2023-02-15T01:50:05.795Z,17.43
2023-02-15T01:52:37.067Z,17.67
2023-02-15T01:55:08.079Z,17.07
2023-02-15T01:57:38.547Z,16.53
2023-02-15T02:00:10.494Z,17.57
2023-02-15T02:02:42.469Z,16.83
2023-02-15T02:05:10.938Z,17.20
2023-02-15T02:07:42.620Z,16.23
2023-02-15T02:10:14.818Z,17.40
2023-02-15T02:12:47.468Z,17.30
2023-02-15T02:15:16.964Z,16.37
2023-02-15T02:17:57.293Z,16.77
2023-02-15T02:20:40.734Z,15.93
2023-02-15T02:23:26.851Z,17.43
2023-02-15T02:26:43.000Z,16.67
2023-02-15T02:29:50.201Z,17.57
2023-02-15T02:32:55.497Z,16.70
2023-02-15T02:35:32.126Z,15.60
2023-02-15T02:38:10.255Z,16.47
2023-02-15T02:40:50.596Z,15.50
2023-02-15T02:43:24.566Z,16.17
2023-02-15T02:45:59.521Z,16.33
2023-02-15T02:48:32.726Z,15.43
2023-02-15T02:51:02.647Z,16.17
2023-02-15T02:53:33.383Z,16.00
2023-02-15T02:56:07.999Z,15.30
2023-02-15T02:58:41.186Z,15.67
2023-02-15T03:01:14.603Z,16.27
2023-02-15T03:03:48.140Z,16.57
2023-02-15T03:06:22.233Z,17.17
2023-02-15T03:08:54.202Z,17.50
2023-02-15T03:11:22.824Z,16.10
2023-02-15T03:13:53.537Z,17.93
2023-02-15T03:16:29.441Z,17.90
2023-02-15T03:19:02.468Z,17.67
2023-02-15T03:21:38.949Z,18.87
2023-02-15T03:24:12.676Z,16.87
2023-02-15T03:26:42.075Z,17.13
2023-02-15T03:29:12.773Z,15.57
2023-02-15T03:31:45.972Z,16.57
2023-02-15T03:34:17.284Z,16.77
2023-02-15T03:36:54.273Z,15.93
2023-02-15T03:39:31.886Z,17.87
2023-02-15T03:42:07.147Z,16.13
2023-02-15T03:44:45.229Z,15.40
2023-02-15T03:47:17.386Z,16.03
2023-02-15T03:49:51.250Z,15.33
2023-02-15T03:52:21.578Z,16.70
2023-02-15T03:54:51.533Z,16.43
2023-02-15T03:57:40.242Z,17.27
2023-02-15T04:00:33.030Z,15.43
2023-02-15T04:03:14.768Z,15.83
2023-02-15T04:05:44.605Z,16.60
2023-02-15T04:08:15.119Z,15.07
2023-02-15T04:10:55.999Z,16.27
2023-02-15T04:13:31.724Z,15.50
2023-02-15T04:16:05.993Z,16.67
2023-02-15T04:18:55.824Z,14.73
2023-02-15T04:21:44.951Z,15.27
2023-02-15T04:24:33.512Z,15.33
2023-02-15T04:27:03.272Z,15.87
2023-02-15T04:29:32.305Z,15.47
2023-02-15T04:32:02.716Z,16.00
2023-02-15T04:34:31.347Z,16.00
2023-02-15T04:36:59.786Z,15.40
2023-02-15T04:39:29.720Z,15.70
2023-02-15T04:41:58.215Z,17.03
2023-02-15T04:44:26.729Z,15.90
2023-02-15T04:46:55.733Z,14.80
2023-02-15T04:49:24.184Z,15.33
2023-02-15T04:51:52.661Z,15.13
2023-02-15T04:54:21.207Z,15.93
2023-02-15T04:56:51.029Z,15.60
2023-02-15T04:59:19.517Z,17.80
2023-02-15T05:01:48.059Z,17.27
2023-02-15T05:04:16.639Z,16.30
2023-02-15T05:06:45.133Z,16.10
2023-02-15T05:09:14.156Z,16.43
2023-02-15T05:11:42.705Z,15.47
2023-02-15T05:14:12.670Z,15.60
2023-02-15T05:16:41.249Z,16.57
2023-02-15T05:19:09.719Z,15.30
2023-02-15T05:21:38.429Z,16.30
2023-02-15T05:24:28.408Z,15.73
2023-02-15T05:27:14.389Z,16.70
2023-02-15T05:29:44.215Z,15.90
2023-02-15T05:32:14.993Z,16.00
2023-02-15T05:34:43.620Z,15.90
2023-02-15T05:37:12.082Z,15.83
2023-02-15T05:39:40.557Z,17.07
2023-02-15T05:42:09.066Z,15.87
2023-02-15T05:44:37.665Z,15.40
2023-02-15T05:47:08.404Z,16.67
2023-02-15T05:49:37.156Z,16.13
2023-02-15T05:52:05.853Z,16.43
2023-02-15T05:54:34.376Z,16.23
2023-02-15T05:57:02.851Z,16.67
2023-02-15T05:59:31.312Z,14.67
2023-02-15T06:01:59.828Z,16.17
2023-02-15T06:04:29.962Z,16.27
2023-02-15T06:06:58.449Z,15.50
2023-02-15T06:09:26.922Z,18.63
2023-02-15T06:11:55.433Z,16.37
2023-02-15T06:14:24.010Z,16.37
2023-02-15T06:16:52.445Z,14.30
2023-02-15T06:19:21.921Z,15.57
2023-02-15T06:21:51.778Z,16.97
2023-02-15T06:24:20.251Z,16.67
2023-02-15T06:26:48.716Z,16.73
2023-02-15T06:29:17.406Z,16.73
2023-02-15T06:31:45.957Z,17.57
2023-02-15T06:34:14.529Z,15.97
2023-02-15T06:36:43.428Z,16.43
2023-02-15T06:39:13.277Z,17.23
2023-02-15T06:41:41.780Z,18.23
2023-02-15T06:44:10.302Z,19.70
2023-02-15T06:46:38.783Z,16.93
2023-02-15T06:49:07.297Z,17.03
2023-02-15T06:51:35.898Z,15.60
2023-02-15T06:54:04.458Z,18.80
2023-02-15T06:56:34.304Z,16.83
2023-02-15T06:59:03.139Z,17.60
2023-02-15T07:01:31.727Z,17.33
2023-02-15T07:04:00.387Z,18.33
2023-02-15T07:06:32.666Z,19.83
2023-02-15T07:09:01.252Z,19.80
2023-02-15T07:11:47.659Z,18.63
2023-02-15T07:14:17.461Z,19.37
2023-02-15T07:16:45.951Z,18.07
2023-02-15T07:19:14.382Z,18.83
2023-02-15T07:21:42.940Z,18.33
2023-02-15T07:24:11.392Z,17.00
2023-02-15T07:26:39.870Z,18.97
2023-02-15T07:29:08.366Z,18.60
2023-02-15T07:31:38.190Z,17.97
2023-02-15T07:34:08.004Z,19.23
2023-02-15T07:36:36.444Z,20.23
2023-02-15T07:39:05.021Z,20.37
2023-02-15T07:41:33.459Z,19.17
2023-02-15T07:44:01.950Z,18.57
2023-02-15T07:46:31.332Z,21.00
2023-02-15T07:49:01.183Z,19.83
2023-02-15T07:51:29.686Z,20.47
2023-02-15T07:53:58.142Z,19.93
2023-02-15T07:56:26.748Z,19.77
2023-02-15T07:58:56.732Z,19.77
2023-02-15T08:01:27.021Z,18.73
2023-02-15T08:03:56.422Z,17.83
2023-02-15T08:06:29.065Z,18.40
2023-02-15T08:08:57.754Z,19.90
2023-02-15T08:11:29.959Z,20.37
2023-02-15T08:14:00.979Z,19.63
2023-02-15T08:16:32.347Z,18.80
2023-02-15T08:19:03.338Z,19.37
2023-02-15T08:21:34.568Z,18.53
2023-02-15T08:24:03.729Z,18.07
2023-02-15T08:26:32.889Z,18.57
2023-02-15T08:29:02.470Z,17.73
2023-02-15T08:31:31.718Z,18.37
2023-02-15T08:34:00.553Z,19.00
2023-02-15T08:36:32.543Z,18.10
2023-02-15T08:39:04.673Z,17.27
2023-02-15T08:41:36.581Z,19.40
2023-02-15T08:44:06.720Z,18.33
2023-02-15T08:46:37.182Z,18.80
2023-02-15T08:49:06.065Z,18.57
2023-02-15T08:51:36.685Z,19.17
2023-02-15T08:54:08.465Z,18.80
2023-02-15T08:56:40.036Z,19.67
2023-02-15T08:59:13.662Z,17.90
2023-02-15T09:01:42.419Z,18.63
2023-02-15T09:04:11.499Z,19.30
2023-02-15T09:06:41.463Z,18.87
2023-02-15T09:09:12.309Z,17.47
2023-02-15T09:11:43.040Z,18.83
2023-02-15T09:14:14.492Z,18.77
2023-02-15T09:16:45.876Z,17.47
2023-02-15T09:19:14.626Z,18.50
2023-02-15T09:21:43.615Z,18.57
2023-02-15T09:24:15.229Z,17.80
2023-02-15T09:26:45.766Z,18.33
2023-02-15T09:29:15.700Z,17.43
2023-02-15T09:31:46.604Z,18.37
2023-02-15T09:34:17.015Z,17.23
2023-02-15T09:36:45.496Z,17.57
2023-02-15T09:39:18.016Z,19.23
2023-02-15T09:42:19.166Z,17.67
2023-02-15T09:45:05.381Z,17.50
2023-02-15T09:48:09.610Z,17.93
2023-02-15T09:50:47.987Z,19.47
2023-02-15T09:53:37.267Z,18.47
2023-02-15T09:56:13.792Z,18.57
2023-02-15T09:58:50.311Z,19.17
2023-02-15T10:01:30.895Z,17.77
2023-02-15T10:04:23.614Z,19.40
2023-02-15T10:07:03.418Z,16.97
2023-02-15T10:09:44.415Z,18.77
2023-02-15T10:12:43.583Z,18.40
2023-02-15T10:15:26.046Z,17.97
2023-02-15T10:18:18.009Z,18.03
2023-02-15T10:20:58.588Z,17.77
2023-02-15T10:23:41.210Z,17.57
2023-02-15T10:26:16.971Z,17.90
2023-02-15T10:28:50.146Z,16.47
2023-02-15T10:31:26.108Z,18.63
2023-02-15T10:34:09.444Z,18.67
2023-02-15T10:36:56.847Z,16.50
2023-02-15T10:39:30.955Z,18.13
2023-02-15T10:42:08.422Z,15.97
2023-02-15T10:44:51.581Z,17.73
2023-02-15T10:47:33.235Z,17.30
2023-02-15T10:50:22.013Z,16.10
2023-02-15T10:53:05.689Z,16.27
2023-02-15T10:55:47.390Z,16.70
2023-02-15T10:58:23.300Z,17.57
2023-02-15T11:01:01.561Z,16.60
2023-02-15T11:03:41.768Z,17.10
2023-02-15T11:06:15.302Z,18.10
2023-02-15T11:08:48.184Z,17.13
2023-02-15T11:11:27.229Z,17.10
2023-02-15T11:14:00.855Z,17.47
2023-02-15T11:16:34.820Z,16.87
2023-02-15T11:19:07.272Z,18.57
2023-02-15T11:21:40.151Z,16.30
2023-02-15T11:24:13.182Z,17.87
2023-02-15T11:26:45.282Z,15.57
2023-02-15T11:29:20.085Z,17.87
2023-02-15T11:31:55.403Z,17.37
2023-02-15T11:34:29.989Z,16.10
2023-02-15T11:37:02.935Z,17.07
2023-02-15T11:39:32.772Z,18.03
2023-02-15T11:42:06.775Z,16.57
2023-02-15T11:44:41.312Z,17.63
2023-02-15T11:47:13.391Z,15.53
2023-02-15T11:49:41.979Z,16.30
2023-02-15T11:52:16.808Z,18.07
2023-02-15T11:54:48.082Z,17.40
2023-02-15T11:57:21.288Z,15.87
2023-02-15T11:59:55.549Z,17.20
2023-02-15T12:02:28.420Z,17.97
2023-02-15T12:05:00.117Z,17.33
2023-02-15T12:07:34.009Z,17.30
2023-02-15T12:10:08.029Z,18.20
2023-02-15T12:12:37.830Z,17.63
2023-02-15T12:15:09.095Z,17.23
2023-02-15T12:17:42.449Z,16.63
2023-02-15T12:20:26.613Z,17.20
2023-02-15T12:23:02.951Z,17.73
2023-02-15T12:25:37.816Z,16.43
2023-02-15T12:28:17.822Z,16.33
2023-02-15T12:30:46.321Z,16.87
2023-02-15T12:33:24.500Z,18.13
2023-02-15T12:36:00.574Z,16.40
2023-02-15T12:38:30.372Z,17.03
2023-02-15T12:41:01.586Z,17.27
2023-02-15T12:43:34.838Z,15.87
2023-02-15T12:46:27.235Z,16.77
2023-02-15T12:49:20.492Z,17.50
2023-02-15T12:51:51.484Z,19.30
2023-02-15T12:54:43.080Z,17.43
2023-02-15T12:57:26.408Z,17.53
2023-02-15T12:59:57.546Z,18.87
2023-02-15T13:02:29.688Z,16.70
2023-02-15T13:05:09.760Z,16.87
2023-02-15T13:07:39.293Z,20.30
2023-02-15T13:10:23.636Z,17.97
2023-02-15T13:12:54.932Z,18.60
2023-02-15T13:15:32.586Z,19.70
2023-02-15T13:18:02.855Z,18.83
2023-02-15T13:20:36.341Z,18.10
2023-02-15T13:23:11.150Z,17.10
2023-02-15T13:25:51.063Z,18.77
2023-02-15T13:28:24.579Z,18.47
2023-02-15T13:30:53.435Z,18.80
2023-02-15T13:33:28.408Z,18.80
2023-02-15T13:36:08.691Z,18.10
2023-02-15T13:38:54.920Z,18.10
2023-02-15T13:41:29.363Z,18.47
2023-02-15T13:44:08.267Z,16.70
2023-02-15T13:46:58.402Z,18.23
2023-02-15T13:49:42.750Z,18.87
2023-02-15T13:52:21.873Z,17.50
2023-02-15T13:55:22.213Z,18.10
2023-02-15T13:58:17.641Z,18.80
2023-02-15T14:00:54.292Z,18.90
2023-02-15T14:03:55.419Z,18.60
2023-02-15T14:06:50.573Z,18.47
2023-02-15T14:09:31.991Z,19.13
2023-02-15T14:12:17.722Z,19.17
2023-02-15T14:15:04.123Z,18.17
2023-02-15T14:17:44.244Z,19.73
2023-02-15T14:20:22.876Z,18.97
2023-02-15T14:23:02.830Z,18.07
2023-02-15T14:25:38.593Z,17.87
2023-02-15T14:28:12.090Z,16.57
2023-02-15T14:30:43.474Z,18.30
2023-02-15T14:33:35.252Z,19.20
2023-02-15T14:36:07.587Z,19.17
2023-02-15T14:38:50.448Z,19.73
2023-02-15T14:41:25.250Z,19.20
2023-02-15T14:44:02.971Z,18.23
2023-02-15T14:46:40.830Z,17.27
2023-02-15T14:49:13.845Z,20.20
2023-02-15T14:52:06.437Z,17.93
2023-02-15T14:55:00.847Z,17.87
2023-02-15T14:57:36.360Z,18.60
2023-02-15T15:00:38.968Z,19.00
2023-02-15T15:03:19.566Z,18.40
2023-02-15T15:05:54.566Z,18.47
2023-02-15T15:08:30.931Z,18.83
2023-02-15T15:11:42.083Z,20.60
2023-02-15T15:14:33.291Z,18.47
2023-02-15T15:17:02.958Z,17.83
2023-02-15T15:20:00.243Z,17.37
2023-02-15T15:22:30.428Z,18.93
2023-02-15T15:25:00.154Z,19.50
2023-02-15T15:27:51.861Z,19.80
2023-02-15T15:31:02.029Z,18.90
2023-02-15T15:34:03.007Z,18.67
2023-02-15T15:37:03.617Z,18.60
2023-02-15T15:40:01.727Z,18.57
2023-02-15T15:42:40.092Z,18.73
2023-02-15T15:45:39.444Z,20.00
2023-02-15T15:48:26.477Z,20.17
2023-02-15T15:51:00.358Z,19.57
2023-02-15T15:53:32.695Z,18.33
2023-02-15T15:56:07.320Z,20.70
2023-02-15T15:58:36.803Z,20.67
2023-02-15T16:01:09.687Z,20.70
2023-02-15T16:03:38.239Z,18.77
2023-02-15T16:06:13.417Z,20.43
2023-02-15T16:08:41.926Z,20.90
2023-02-15T16:11:14.591Z,21.37
2023-02-15T16:13:43.728Z,21.03
2023-02-15T16:16:14.841Z,19.83
2023-02-15T16:18:44.447Z,20.17
2023-02-15T16:21:21.913Z,20.40
2023-02-15T16:24:17.116Z,19.50
2023-02-15T16:27:06.881Z,21.37
2023-02-15T16:29:36.420Z,21.53
2023-02-15T16:32:07.289Z,20.70
2023-02-15T16:34:35.806Z,19.77
2023-02-15T16:37:19.403Z,21.70
2023-02-15T16:39:49.853Z,22.07
2023-02-15T16:42:20.661Z,21.67
2023-02-15T16:44:53.096Z,21.23
2023-02-15T16:47:26.726Z,20.53
2023-02-15T16:49:58.127Z,21.83
2023-02-15T16:52:29.852Z,21.37
2023-02-15T16:55:00.562Z,22.57
2023-02-15T16:57:32.342Z,21.53
2023-02-15T17:00:06.249Z,22.33
2023-02-15T17:02:56.392Z,21.30
2023-02-15T17:05:25.248Z,20.93
2023-02-15T17:08:13.984Z,23.40
2023-02-15T17:10:46.390Z,21.57
2023-02-15T17:13:16.114Z,20.43
2023-02-15T17:15:46.504Z,20.50
2023-02-15T17:18:20.367Z,22.93
2023-02-15T17:20:51.674Z,22.97
2023-02-15T17:23:27.587Z,23.00
2023-02-15T17:25:56.755Z,21.47
2023-02-15T17:28:28.312Z,22.13
2023-02-15T17:30:58.179Z,23.80
2023-02-15T17:33:30.093Z,34.43
2023-02-15T17:36:09.649Z,31.50
2023-02-15T17:38:40.264Z,26.73
2023-02-15T17:41:09.699Z,24.80
2023-02-15T17:43:38.541Z,27.03
2023-02-15T17:46:07.068Z,24.83
2023-02-15T17:48:37.230Z,24.37
2023-02-15T17:51:09.271Z,23.40
2023-02-15T17:53:40.362Z,22.83
2023-02-15T17:56:10.586Z,23.10
2023-02-15T17:58:40.204Z,22.43
2023-02-15T18:01:33.046Z,25.53
2023-02-15T18:04:19.007Z,24.67
2023-02-15T18:07:05.075Z,24.43
2023-02-15T18:09:52.077Z,24.43
2023-02-15T18:12:22.214Z,23.70
2023-02-15T18:14:50.756Z,22.60
2023-02-15T18:17:20.117Z,23.47
2023-02-15T18:19:49.097Z,27.77
2023-02-15T18:22:20.152Z,24.90
2023-02-15T18:24:50.603Z,22.07
2023-02-15T18:27:19.136Z,22.17
2023-02-15T18:29:48.608Z,23.40
2023-02-15T18:32:19.603Z,22.33
2023-02-15T18:34:49.493Z,23.20
2023-02-15T18:37:20.977Z,21.87
2023-02-15T18:39:54.220Z,21.90
2023-02-15T18:42:24.340Z,23.63
2023-02-15T18:44:56.162Z,22.60
2023-02-15T18:47:24.710Z,21.50
2023-02-15T18:49:53.411Z,22.53
2023-02-15T18:52:24.411Z,22.80
2023-02-15T18:54:57.021Z,21.10
2023-02-15T18:57:25.617Z,25.20
2023-02-15T18:59:54.134Z,23.70
2023-02-15T19:02:22.643Z,24.97
2023-02-15T19:04:51.224Z,23.07
2023-02-15T19:07:23.068Z,28.57
2023-02-15T19:09:57.143Z,24.57
2023-02-15T19:12:25.817Z,24.90
2023-02-15T19:14:55.870Z,25.53
2023-02-15T19:17:25.513Z,22.87
2023-02-15T19:19:53.989Z,24.30
2023-02-15T19:22:28.113Z,26.80
2023-02-15T19:25:00.400Z,25.93
2023-02-15T19:27:31.114Z,24.63
2023-02-15T19:30:01.521Z,23.97
2023-02-15T19:32:30.589Z,23.63
2023-02-15T19:34:59.141Z,24.90
2023-02-15T19:37:38.023Z,22.53
2023-02-15T19:40:17.294Z,24.73
2023-02-15T19:42:45.696Z,24.07
2023-02-15T19:45:15.660Z,25.37
2023-02-15T19:47:44.402Z,23.33
2023-02-15T19:50:17.691Z,22.47
2023-02-15T19:52:47.023Z,21.37
2023-02-15T19:55:25.025Z,21.80
2023-02-15T19:57:54.553Z,23.17
2023-02-15T20:00:25.760Z,25.43
2023-02-15T20:02:55.453Z,24.90
2023-02-15T20:05:24.814Z,25.70
2023-02-15T20:07:54.540Z,23.10
2023-02-15T20:10:28.043Z,24.50
2023-02-15T20:12:56.759Z,25.33
2023-02-15T20:15:27.119Z,26.03
2023-02-15T20:17:56.385Z,25.53
2023-02-15T20:20:29.958Z,25.73
2023-02-15T20:22:58.670Z,23.93
2023-02-15T20:25:30.354Z,25.90
2023-02-15T20:27:59.274Z,25.23
2023-02-15T20:30:29.580Z,23.33
2023-02-15T20:32:58.376Z,25.33
2023-02-15T20:35:29.594Z,25.27
2023-02-15T20:38:00.392Z,25.93
2023-02-15T20:40:32.583Z,25.43
2023-02-15T20:43:01.491Z,26.87
2023-02-15T20:45:32.465Z,24.83
2023-02-15T20:48:01.894Z,26.63
2023-02-15T20:50:32.513Z,26.53
2023-02-15T20:53:03.190Z,24.27
2023-02-15T20:55:33.898Z,24.90
2023-02-15T20:58:02.361Z,22.93
2023-02-15T21:00:32.744Z,24.90
2023-02-15T21:03:02.753Z,28.53
2023-02-15T21:05:33.659Z,27.27
2023-02-15T21:08:02.225Z,26.10
2023-02-15T21:10:35.138Z,24.33
2023-02-15T21:13:04.482Z,24.10
2023-02-15T21:15:34.611Z,23.77
2023-02-15T21:18:05.359Z,22.90
2023-02-15T21:20:36.179Z,22.27
2023-02-15T21:23:06.732Z,23.37
2023-02-15T21:25:38.242Z,24.43
2023-02-15T21:28:08.974Z,23.03
2023-02-15T21:30:37.588Z,26.03
2023-02-15T21:33:06.130Z,23.33
2023-02-15T21:35:34.642Z,25.03
2023-02-15T21:38:03.169Z,23.53
2023-02-15T21:40:33.798Z,23.73
2023-02-15T21:43:20.838Z,23.87
2023-02-15T21:46:06.761Z,22.63
2023-02-15T21:48:35.181Z,24.23
2023-02-15T21:51:20.994Z,24.00
2023-02-15T21:53:49.864Z,23.50
2023-02-15T21:56:20.718Z,22.43
2023-02-15T21:58:50.701Z,23.73
2023-02-15T22:01:23.062Z,25.33
2023-02-15T22:03:53.510Z,24.70
2023-02-15T22:06:22.466Z,23.07
2023-02-15T22:08:50.975Z,20.83
2023-02-15T22:11:22.558Z,23.83
2023-02-15T22:13:52.681Z,24.77
2023-02-15T22:16:23.583Z,25.40
2023-02-15T22:18:52.237Z,25.03
2023-02-15T22:21:20.805Z,23.37
2023-02-15T22:23:49.234Z,24.40
2023-02-15T22:26:22.396Z,22.87
2023-02-15T22:28:52.369Z,23.93
2023-02-15T22:31:23.223Z,24.07
2023-02-15T22:33:51.888Z,23.40
2023-02-15T22:36:25.104Z,23.27
2023-02-15T22:38:53.922Z,22.50
2023-02-15T22:41:32.150Z,23.13
2023-02-15T22:44:02.025Z,23.27
2023-02-15T22:46:30.536Z,22.93
2023-02-15T22:48:59.000Z,24.47
2023-02-15T22:51:27.593Z,22.80
2023-02-15T22:53:56.049Z,23.37
2023-02-15T22:56:31.546Z,22.93
2023-02-15T22:59:03.505Z,24.80
2023-02-15T23:01:34.177Z,23.13
2023-02-15T23:04:04.243Z,23.40
2023-02-15T23:06:34.233Z,23.57
2023-02-15T23:09:02.818Z,23.97
2023-02-15T23:11:31.333Z,24.33
2023-02-15T23:14:02.948Z,24.23
2023-02-15T23:16:32.232Z,22.97
2023-02-15T23:19:00.750Z,23.00
2023-02-15T23:21:31.763Z,24.67
2023-02-15T23:24:13.294Z,24.53
2023-02-15T23:26:41.889Z,25.00
2023-02-15T23:29:17.113Z,24.70
2023-02-15T23:31:47.292Z,23.47
2023-02-15T23:34:19.317Z,25.10
2023-02-15T23:36:47.923Z,24.07
2023-02-15T23:39:36.046Z,24.40
2023-02-15T23:42:09.878Z,23.90
2023-02-15T23:44:40.735Z,24.73
2023-02-15T23:47:20.432Z,26.03
2023-02-15T23:49:48.997Z,25.37
2023-02-15T23:52:17.506Z,24.97
2023-02-15T23:54:45.920Z,25.47
2023-02-15T23:57:14.457Z,23.90
2023-02-15T23:59:45.885Z,24.17
